Olamon, Maine
Current Conditions -  °F | °C
As of 2:53 PM on Wednesday 28 Jan 2015 (Local Time) from KBGR Reporting Station
Overcast Overcast  
Wind Chill:   Ceiling: 4500
Heat Index: 18°   Visibility: 8mi
Dew Point: 10°   Wind: 17mph
Humidity: 71%   Direction: 320°NW
Pressure: 29.92"   Gusts: NA
Location:  45.12°N, 68.6°W
Report Text: KBGR 281953Z 32015KT 8SM SCT027 BKN045 OVC060 M08/M12 A2992 RMK AO2 SLP138 T10781122
Loading
Personal Weather Stations






























Interactive Weather Map New forecast layout! Learn more

10-Day Weather Forecast

Advertisements
Track Severe Weather on mobile